Time;durP1;ratioP1;P1;durP2;ratioP2;P2;SDS_P1;SDS_P2;PMS_P1;PMS_P2;Temp;Humidity;BMP_temperature;BMP_pressure;BME280_temperature;BME280_humidity;BME280_pressure;Samples;Min_cycle;Max_cycle;Signal;HPM_P1;HPM_P2
2024/01/02 00:09:39;;;;;;;23.90;10.50;;;;;;;3.40;98.72;97829.23;434974;1257;108624;-39
2024/01/02 00:19:46;;;;;;;23.00;9.00;;;;;;;3.35;98.85;97822.65;434990;1259;99303;-40
2024/01/02 00:29:53;;;;;;;18.80;10.30;;;;;;;3.38;98.91;97830.96;434880;1253;107675;-38
2024/01/02 00:40:00;;;;;;;27.00;14.40;;;;;;;3.44;99.18;97842.17;435048;1258;97993;-40
2024/01/02 01:10:19;;;;;;;14.80;7.70;;;;;;;3.43;98.97;97852.02;435077;1257;97996;-40
2024/01/02 01:20:26;;;;;;;56.80;22.80;;;;;;;3.49;99.28;97853.13;435061;1253;111902;-40
2024/01/02 01:30:33;;;;;;;29.30;13.70;;;;;;;3.58;99.35;97842.60;435128;1252;108089;-39
2024/01/02 01:40:39;;;;;;;33.70;14.60;;;;;;;3.63;99.31;97828.50;435103;1257;97934;-40
2024/01/02 01:50:46;;;;;;;12.70;7.00;;;;;;;3.69;99.49;97835.92;434969;1257;109428;-39
2024/01/02 02:00:53;;;;;;;13.60;5.40;;;;;;;3.68;99.49;97834.48;434963;1257;98666;-40
2024/01/02 02:10:59;;;;;;;20.60;13.90;;;;;;;3.63;99.36;97829.95;434980;1256;111840;-39
2024/01/02 02:21:06;;;;;;;15.10;6.50;;;;;;;3.68;99.44;97830.05;434896;1253;108746;-40
2024/01/02 02:31:12;;;;;;;19.70;7.80;;;;;;;3.72;99.41;97832.14;434971;1257;99256;-40
2024/01/02 02:41:19;;;;;;;16.30;8.20;;;;;;;3.71;99.55;97826.79;435945;1251;108373;-40
2024/01/02 03:01:32;;;;;;;14.80;8.70;;;;;;;3.78;99.72;97823.27;435492;1254;110900;-39
2024/01/02 03:11:39;;;;;;;13.30;8.10;;;;;;;3.79;99.94;97823.44;435358;1254;107213;-39
2024/01/02 03:21:46;;;;;;;12.60;7.90;;;;;;;3.71;99.86;97818.30;435499;1254;99221;-39
2024/01/02 03:31:51;;;;;;;18.00;10.00;;;;;;;3.63;99.59;97816.20;435403;1253;112131;-39
2024/01/02 03:41:58;;;;;;;14.90;7.20;;;;;;;3.66;99.76;97809.88;435401;1250;108096;-39
2024/01/02 03:52:05;;;;;;;50.10;22.30;;;;;;;3.70;99.84;97812.99;435310;1251;98505;-39
2024/01/02 04:02:12;;;;;;;16.00;9.10;;;;;;;3.73;99.92;97825.89;435344;1253;109702;-39
2024/01/02 04:12:18;;;;;;;23.10;13.20;;;;;;;3.77;99.99;97832.60;435312;1250;99308;-38
2024/01/02 04:22:26;;;;;;;25.00;10.60;;;;;;;3.79;99.95;97832.92;435277;1249;111144;-38
2024/01/02 04:32:33;;;;;;;14.20;5.40;;;;;;;3.68;100.00;97833.75;435252;1254;106742;-39
2024/01/02 04:42:41;;;;;;;20.70;8.10;;;;;;;3.55;99.91;97835.95;435546;1250;98713;-40
2024/01/02 04:52:48;;;;;;;22.30;10.90;;;;;;;3.51;99.90;97834.55;435404;1254;107923;-39
2024/01/02 05:02:54;;;;;;;7.50;4.30;;;;;;;3.44;99.84;97842.44;435651;1250;98821;-39
2024/01/02 05:13:02;;;;;;;3.30;2.70;;;;;;;3.34;99.77;97853.14;435162;1250;111948;-38
2024/01/02 05:23:09;;;;;;;8.60;3.40;;;;;;;3.21;99.64;97856.48;435314;1254;108348;-40
2024/01/02 05:33:22;;;;;;;5.50;1.80;;;;;;;3.11;99.78;97852.55;435475;1254;99100;-39
2024/01/02 05:43:29;;;;;;;6.10;3.10;;;;;;;2.93;99.84;97846.56;435430;1253;107667;-40
2024/01/02 05:53:36;;;;;;;6.60;4.80;;;;;;;2.93;99.91;97837.01;435284;1251;99214;-39
2024/01/02 06:03:43;;;;;;;4.20;2.70;;;;;;;3.01;99.72;97831.81;435345;1250;111549;-40
2024/01/02 06:13:51;;;;;;;11.80;10.60;;;;;;;3.13;99.98;97828.60;435326;1250;108158;-40
2024/01/02 06:34:04;;;;;;;19.20;12.00;;;;;;;3.14;99.90;97840.94;435377;1254;108636;-39
2024/01/02 06:54:16;;;;;;;16.60;8.40;;;;;;;2.93;99.77;97831.09;435456;1253;112190;-39
2024/01/02 07:04:24;;;;;;;15.00;10.40;;;;;;;2.90;99.91;97836.12;435150;1256;107167;-40
2024/01/02 07:14:33;;;;;;;18.10;9.70;;;;;;;2.94;99.97;97831.30;435532;1254;99263;-40
2024/01/02 07:24:40;;;;;;;18.60;12.10;;;;;;;2.92;99.91;97825.48;435292;1250;107446;-39
2024/01/02 07:34:47;;;;;;;30.30;18.40;;;;;;;2.97;99.98;97819.56;435284;1251;99060;-40
2024/01/02 07:44:54;;;;;;;26.40;16.00;;;;;;;3.05;99.96;97814.02;435264;1254;111859;-41
2024/01/02 07:55:02;;;;;;;45.90;20.70;;;;;;;3.12;100.00;97803.94;435440;1254;107551;-38
2024/01/02 08:05:09;;;;;;;55.70;28.10;;;;;;;3.21;100.00;97802.55;435381;1250;99250;-39
2024/01/02 08:15:16;;;;;;;26.90;15.90;;;;;;;3.41;100.00;97790.34;435396;1256;111579;-40
2024/01/02 08:35:46;;;;;;;34.50;17.70;;;;;;;4.74;100.00;97782.44;435374;1254;99250;-39
2024/01/02 08:45:53;;;;;;;32.40;16.20;;;;;;;5.12;100.00;97775.29;435355;1253;108309;-40
2024/01/02 09:06:05;;;;;;;35.40;20.20;;;;;;;5.08;99.59;97768.94;435518;1250;111744;-38
2024/01/02 09:16:13;;;;;;;13.50;7.50;;;;;;;5.05;99.18;97769.10;435255;1254;107104;-39
2024/01/02 09:26:20;;;;;;;12.30;6.80;;;;;;;4.95;98.81;97766.80;435411;1253;97985;-39
2024/01/02 09:56:36;;;;;;;16.20;7.60;;;;;;;4.84;98.55;97730.67;435362;1253;99224;-38
2024/01/02 10:06:44;;;;;;;26.70;7.70;;;;;;;4.91;98.46;97715.33;435301;1251;107181;-39
2024/01/02 10:27:10;;;;;;;18.20;7.70;;;;;;;5.19;98.48;97668.89;435351;1256;111817;-38
2024/01/02 10:37:21;;;;;;;20.40;8.40;;;;;;;5.30;98.23;97652.33;435207;1254;108185;-40
2024/01/02 11:07:46;;;;;;;27.60;9.20;;;;;;;5.14;96.69;97599.82;435330;1250;98563;-40
2024/01/02 11:17:52;;;;;;;34.40;11.10;;;;;;;5.15;96.84;97582.95;435582;1253;111247;-39
2024/01/02 11:28:02;;;;;;;26.00;9.80;;;;;;;5.07;96.35;97565.67;435358;1251;106946;-39
2024/01/02 11:48:17;;;;;;;34.20;11.90;;;;;;;5.18;95.69;97526.83;435424;1250;108483;-40
2024/01/02 11:58:22;;;;;;;34.20;12.80;;;;;;;5.20;95.30;97510.48;435477;1253;98005;-40
2024/01/02 12:08:31;;;;;;;24.00;9.20;;;;;;;5.21;94.95;97504.17;435457;1253;113253;-40
2024/01/02 12:18:41;;;;;;;31.60;11.00;;;;;;;5.25;94.43;97490.86;435303;1256;108252;-41
2024/01/02 12:28:48;;;;;;;30.30;11.30;;;;;;;5.25;94.17;97472.04;435241;1254;99215;-39
2024/01/02 12:38:55;;;;;;;21.80;8.30;;;;;;;5.23;93.56;97463.23;435381;1256;107303;-40
2024/01/02 12:59:11;;;;;;;20.50;9.10;;;;;;;5.26;92.74;97446.90;435350;1253;111238;-40
2024/01/02 13:29:29;;;;;;;12.50;5.60;;;;;;;5.17;91.94;97434.77;435240;1252;108128;-40
2024/01/02 13:39:33;;;;;;;19.90;6.90;;;;;;;4.95;91.98;97432.42;435416;1254;99240;-39
2024/01/02 13:59:49;;;;;;;15.10;5.00;;;;;;;4.54;92.32;97408.31;435314;1259;107527;-40
2024/01/02 14:09:58;;;;;;;11.50;3.90;;;;;;;4.46;92.63;97391.69;435337;1256;98005;-39
2024/01/02 14:20:09;;;;;;;14.50;6.10;;;;;;;4.31;92.84;97375.02;435301;1251;109405;-39
2024/01/02 14:30:15;;;;;;;11.80;4.10;;;;;;;4.19;93.18;97367.05;435386;1253;98233;-41
2024/01/02 14:40:22;;;;;;;8.80;3.60;;;;;;;4.17;93.13;97356.05;435505;1250;111259;-40
2024/01/02 14:50:27;;;;;;;10.00;4.40;;;;;;;4.12;93.19;97338.77;435203;1250;107363;-39
2024/01/02 15:00:38;;;;;;;20.80;7.80;;;;;;;4.08;93.45;97324.46;435306;1253;99262;-39
2024/01/02 15:10:44;;;;;;;22.60;8.60;;;;;;;3.93;93.68;97308.58;435503;1255;108021;-39
2024/01/02 15:20:49;;;;;;;16.30;6.40;;;;;;;3.85;93.75;97288.23;435286;1249;99837;-39
2024/01/02 15:31:02;;;;;;;22.60;7.30;;;;;;;3.82;93.93;97277.05;435388;1264;111387;-39
2024/01/02 15:51:18;;;;;;;20.80;9.90;;;;;;;3.78;94.57;97245.39;435591;1251;98267;-39
2024/01/02 16:22:02;;;;;;;20.70;8.50;;;;;;;3.69;95.25;97169.61;435339;1264;111204;-38
2024/01/02 16:32:10;;;;;;;17.50;9.00;;;;;;;3.74;95.45;97165.05;435152;1254;108446;-40
2024/01/02 16:42:23;;;;;;;24.20;13.00;;;;;;;3.75;95.55;97139.69;435230;1254;99260;-41
2024/01/02 16:52:33;;;;;;;34.10;16.40;;;;;;;3.72;95.76;97116.56;435331;1253;106748;-39
2024/01/02 17:02:42;;;;;;;28.30;12.30;;;;;;;3.70;95.66;97107.30;435312;1254;99243;-39
2024/01/02 17:12:49;;;;;;;23.00;12.30;;;;;;;3.76;95.73;97106.33;435309;1254;110178;-39
2024/01/02 17:22:56;;;;;;;30.60;13.20;;;;;;;3.80;95.78;97093.58;435089;1251;106871;-40
2024/01/02 17:33:02;;;;;;;35.20;15.40;;;;;;;3.82;95.84;97083.30;435425;1253;98706;-40
2024/01/02 17:43:07;;;;;;;18.60;9.70;;;;;;;3.83;95.88;97065.50;435627;1254;107307;-40
2024/01/02 17:53:15;;;;;;;26.50;11.70;;;;;;;3.92;95.63;97053.93;435202;1253;99135;-39
2024/01/02 18:13:44;;;;;;;27.40;13.30;;;;;;;3.98;95.75;97022.00;435339;1254;108103;-39
2024/01/02 18:23:55;;;;;;;16.60;8.50;;;;;;;4.06;95.60;97008.23;435445;1253;99253;-40
2024/01/02 18:34:06;;;;;;;19.10;9.40;;;;;;;4.18;95.55;96995.95;435184;1251;107839;-42
2024/01/02 18:44:17;;;;;;;24.90;11.20;;;;;;;4.22;95.53;96988.13;435275;1250;99260;-39
2024/01/02 18:54:23;;;;;;;27.60;13.00;;;;;;;4.15;95.49;96973.81;435290;1254;110358;-39
2024/01/02 19:04:31;;;;;;;19.00;9.00;;;;;;;4.04;95.56;96965.63;435291;1255;107443;-39
2024/01/02 19:14:39;;;;;;;19.80;9.20;;;;;;;4.07;95.42;96957.94;435393;1254;99234;-39
2024/01/02 19:24:46;;;;;;;18.90;10.00;;;;;;;4.09;95.62;96952.45;435171;1250;108484;-40
2024/01/02 19:34:53;;;;;;;19.50;9.80;;;;;;;4.10;95.69;96943.67;435258;1250;98589;-40
2024/01/02 19:45:00;;;;;;;19.40;11.50;;;;;;;4.06;95.87;96926.00;435357;1250;112033;-39
2024/01/02 20:35:55;;;;;;;15.80;9.00;;;;;;;4.08;96.76;96854.06;435389;1255;112479;-40
2024/01/02 20:46:01;;;;;;;18.80;10.40;;;;;;;4.07;96.89;96835.12;435227;1254;108612;-39
2024/01/02 20:56:23;;;;;;;14.30;8.20;;;;;;;3.99;97.17;96815.34;435516;1250;99295;-39
2024/01/02 21:06:27;;;;;;;12.00;8.00;;;;;;;4.04;97.02;96818.96;435234;1254;107997;-38
2024/01/02 21:16:32;;;;;;;11.90;7.90;;;;;;;4.09;97.35;96810.00;435412;1251;98493;-39
2024/01/02 21:26:38;;;;;;;15.60;8.70;;;;;;;4.14;97.54;96797.11;435309;1250;112009;-40
2024/01/02 21:57:10;;;;;;;12.60;7.30;;;;;;;4.22;97.89;96764.13;435587;1254;108894;-39
2024/01/02 22:07:42;;;;;;;6.80;5.70;;;;;;;4.18;97.99;96755.64;435346;1250;99218;-39
2024/01/02 22:17:49;;;;;;;6.70;4.80;;;;;;;4.22;98.08;96734.41;435368;1254;112378;-40
2024/01/02 22:38:07;;;;;;;7.50;5.70;;;;;;;4.32;98.60;96697.03;435271;1250;99321;-39
2024/01/02 22:48:14;;;;;;;6.10;4.70;;;;;;;4.39;98.81;96687.92;435390;1250;108752;-41
2024/01/02 22:58:22;;;;;;;6.10;3.50;;;;;;;4.44;98.86;96674.30;435301;1251;99262;-42
2024/01/02 23:08:27;;;;;;;6.80;4.10;;;;;;;4.49;98.90;96659.14;435208;1256;111538;-39
2024/01/02 23:18:34;;;;;;;6.70;4.50;;;;;;;4.51;99.12;96648.25;435334;1256;107481;-39
2024/01/02 23:28:46;;;;;;;3.60;2.90;;;;;;;4.50;99.09;96632.27;435227;1253;99226;-38
2024/01/02 23:48:58;;;;;;;4.90;3.50;;;;;;;4.57;99.30;96589.55;435233;1251;98556;-40
2024/01/02 23:59:03;;;;;;;5.00;3.90;;;;;;;4.61;99.45;96568.46;435485;1253;111446;-40
